createdAt,value
2022-12-29T00:02:35.712Z,90.93
2022-12-29T00:07:37.809Z,91.05
2022-12-29T00:12:58.900Z,91.33
2022-12-29T00:18:01.313Z,91.17
2022-12-29T00:23:22.117Z,91.73
2022-12-29T00:28:43.039Z,92.25
2022-12-29T00:34:03.893Z,92.36
2022-12-29T00:39:31.395Z,92.97
2022-12-29T00:44:33.580Z,92.49
2022-12-29T00:49:35.962Z,93.06
2022-12-29T00:54:39.951Z,93.31
2022-12-29T00:59:43.123Z,93.56
2022-12-29T01:04:45.401Z,93.57
2022-12-29T01:10:05.926Z,94.73
2022-12-29T01:15:13.264Z,95.29
2022-12-29T01:20:15.825Z,94.85
2022-12-29T01:25:18.308Z,95.05
2022-12-29T01:30:20.347Z,95.36
2022-12-29T01:35:22.369Z,95.17
2022-12-29T01:40:24.515Z,95.14
2022-12-29T01:45:26.622Z,95.40
2022-12-29T01:50:39.527Z,94.99
2022-12-29T01:55:49.778Z,95.11
2022-12-29T02:00:52.409Z,95.14
2022-12-29T02:06:09.928Z,96.00
2022-12-29T02:11:14.310Z,96.42
2022-12-29T02:16:20.412Z,96.76
2022-12-29T02:21:37.495Z,96.86
2022-12-29T02:27:22.483Z,97.20
2022-12-29T02:32:30.596Z,97.31
2022-12-29T02:37:39.700Z,97.30
2022-12-29T02:43:10.799Z,97.62
2022-12-29T02:48:21.475Z,98.32
2022-12-29T02:53:45.021Z,98.83
2022-12-29T02:58:46.987Z,98.77
2022-12-29T03:04:40.730Z,99.05
2022-12-29T03:10:15.107Z,99.04
2022-12-29T03:15:44.102Z,98.80
2022-12-29T03:20:49.302Z,98.57
2022-12-29T03:25:55.607Z,98.86
2022-12-29T03:30:59.189Z,98.73
2022-12-29T03:36:39.823Z,98.85
2022-12-29T03:41:45.869Z,99.33
2022-12-29T03:46:48.828Z,99.47
2022-12-29T03:59:15.402Z,99.69
2022-12-29T04:04:17.680Z,99.93
2022-12-29T04:09:19.910Z,99.99
2022-12-29T04:14:24.251Z,99.65
2022-12-29T04:19:27.774Z,99.55
2022-12-29T04:24:30.686Z,99.24
2022-12-29T04:29:32.793Z,99.70
2022-12-29T04:35:02.859Z,99.43
2022-12-29T04:40:05.352Z,99.63
2022-12-29T04:45:08.245Z,99.66
2022-12-29T04:50:26.081Z,98.88
2022-12-29T04:55:41.043Z,99.02
2022-12-29T05:00:43.817Z,98.59
2022-12-29T05:05:46.450Z,98.81
2022-12-29T05:10:48.920Z,98.59
2022-12-29T05:15:53.666Z,98.85
2022-12-29T05:20:57.671Z,99.26
2022-12-29T05:25:59.731Z,99.41
2022-12-29T05:31:20.710Z,99.56
2022-12-29T05:36:23.953Z,99.67
2022-12-29T05:41:31.013Z,99.81
2022-12-29T05:46:35.808Z,100.00
2022-12-29T05:52:00.471Z,99.96
2022-12-29T05:57:04.160Z,100.00
2022-12-29T06:02:07.248Z,99.94
2022-12-29T06:07:11.834Z,99.80
2022-12-29T06:12:51.260Z,99.89
2022-12-29T06:17:53.544Z,99.73
2022-12-29T06:22:55.602Z,100.00
2022-12-29T06:29:08.193Z,100.00
2022-12-29T06:34:10.366Z,100.00
2022-12-29T06:39:12.393Z,100.00
2022-12-29T06:44:14.597Z,100.00
2022-12-29T06:49:40.097Z,100.00
2022-12-29T06:54:42.123Z,100.00
2022-12-29T06:59:44.148Z,99.54
2022-12-29T07:04:46.355Z,98.92
2022-12-29T07:09:48.293Z,98.90
2022-12-29T07:14:56.790Z,98.49
2022-12-29T07:19:58.798Z,99.20
2022-12-29T07:25:00.887Z,98.89
2022-12-29T07:30:02.933Z,98.76
2022-12-29T07:35:05.486Z,98.67
2022-12-29T07:40:10.891Z,99.16
2022-12-29T07:45:12.932Z,99.89
2022-12-29T07:50:29.878Z,99.62
2022-12-29T07:55:44.709Z,99.36
2022-12-29T08:00:46.964Z,99.58
2022-12-29T08:05:51.291Z,99.47
2022-12-29T08:10:53.066Z,99.28
2022-12-29T08:15:55.039Z,98.97
2022-12-29T08:20:57.081Z,98.82
2022-12-29T08:26:00.801Z,98.48
2022-12-29T08:31:03.326Z,98.24
2022-12-29T08:36:07.825Z,97.99
2022-12-29T08:41:09.745Z,98.05
2022-12-29T08:46:13.196Z,97.68
2022-12-29T08:51:16.515Z,97.52
2022-12-29T08:56:21.926Z,97.62
2022-12-29T09:01:27.115Z,97.55
2022-12-29T09:06:29.221Z,97.38
2022-12-29T09:11:31.497Z,97.27
2022-12-29T09:16:34.120Z,97.11
2022-12-29T09:21:36.324Z,97.08
2022-12-29T09:26:43.357Z,97.38
2022-12-29T09:31:48.997Z,97.26
2022-12-29T09:36:51.165Z,96.72
2022-12-29T09:42:09.251Z,97.24
2022-12-29T09:47:14.697Z,97.70
2022-12-29T09:52:49.435Z,98.31
2022-12-29T09:58:01.337Z,98.48
2022-12-29T10:03:24.198Z,98.95
2022-12-29T10:08:58.450Z,99.16
2022-12-29T10:14:33.974Z,99.32
2022-12-29T10:19:59.008Z,99.89
2022-12-29T10:25:04.890Z,100.00
2022-12-29T10:30:07.441Z,100.00
2022-12-29T10:35:21.279Z,100.00
2022-12-29T10:40:53.840Z,100.00
2022-12-29T10:46:00.481Z,100.00
2022-12-29T10:51:05.243Z,100.00
2022-12-29T10:56:27.635Z,100.00
2022-12-29T11:01:36.459Z,100.00
2022-12-29T11:06:39.075Z,99.71
2022-12-29T11:11:41.077Z,99.86
2022-12-29T11:16:45.301Z,99.35
2022-12-29T11:21:47.519Z,100.00
2022-12-29T11:27:11.603Z,97.90
2022-12-29T11:32:15.230Z,96.02
2022-12-29T11:37:40.791Z,95.38
2022-12-29T11:42:49.198Z,95.08
2022-12-29T11:47:55.951Z,93.62
2022-12-29T11:53:17.088Z,93.03
2022-12-29T11:58:19.058Z,92.76
2022-12-29T12:03:22.625Z,91.87
2022-12-29T12:08:33.721Z,90.88
2022-12-29T12:14:01.870Z,91.79
2022-12-29T12:19:33.831Z,90.76
2022-12-29T12:24:40.687Z,91.09
2022-12-29T12:29:50.097Z,92.94
2022-12-29T12:34:52.499Z,93.25
2022-12-29T12:40:09.121Z,92.78
2022-12-29T12:45:48.296Z,93.69
2022-12-29T12:51:28.688Z,91.92
2022-12-29T12:56:49.166Z,91.69
2022-12-29T13:02:11.374Z,91.99
2022-12-29T13:07:36.230Z,93.09
2022-12-29T13:13:02.235Z,91.06
2022-12-29T13:18:11.618Z,91.44
2022-12-29T13:23:18.959Z,90.02
2022-12-29T13:28:21.003Z,92.36
2022-12-29T13:33:27.184Z,93.13
2022-12-29T13:38:34.481Z,90.01
2022-12-29T13:43:42.542Z,90.97
2022-12-29T13:48:58.659Z,92.39
2022-12-29T13:54:45.517Z,92.60
2022-12-29T13:59:55.107Z,92.77
2022-12-29T14:05:43.836Z,92.85
2022-12-29T14:10:50.682Z,93.47
2022-12-29T14:15:59.804Z,94.00
2022-12-29T14:21:03.427Z,93.49
2022-12-29T14:26:08.361Z,92.28
2022-12-29T14:31:16.461Z,93.05
2022-12-29T14:36:24.833Z,92.24
2022-12-29T14:42:03.584Z,94.04
2022-12-29T14:47:10.277Z,94.76
2022-12-29T14:52:18.999Z,98.07
2022-12-29T14:57:30.858Z,98.31
2022-12-29T15:02:39.653Z,100.00
2022-12-29T15:07:42.043Z,100.00
2022-12-29T15:13:18.260Z,100.00
2022-12-29T15:18:31.198Z,100.00
2022-12-29T15:23:35.524Z,100.00
2022-12-29T15:28:39.206Z,100.00
2022-12-29T15:33:43.058Z,99.75
2022-12-29T15:38:49.372Z,100.00
2022-12-29T15:44:09.407Z,98.37
2022-12-29T15:49:16.078Z,98.80
2022-12-29T15:54:19.828Z,99.19
2022-12-29T15:59:27.992Z,98.78
2022-12-29T16:04:48.125Z,99.34
2022-12-29T16:09:57.979Z,100.00
2022-12-29T16:15:03.178Z,98.61
2022-12-29T16:20:42.574Z,99.87
2022-12-29T16:25:44.591Z,99.51
2022-12-29T16:30:47.024Z,98.58
2022-12-29T16:35:54.443Z,99.10
2022-12-29T16:42:06.088Z,99.08
2022-12-29T16:47:15.916Z,100.00
2022-12-29T16:52:29.144Z,100.00
2022-12-29T16:57:37.558Z,100.00
2022-12-29T17:02:46.177Z,100.00
2022-12-29T17:07:48.875Z,100.00
2022-12-29T17:12:51.013Z,100.00
2022-12-29T17:17:55.356Z,100.00
2022-12-29T17:22:58.513Z,100.00
2022-12-29T17:28:02.783Z,100.00
2022-12-29T17:33:09.086Z,100.00
2022-12-29T17:38:21.427Z,100.00
2022-12-29T17:43:24.977Z,100.00
2022-12-29T17:48:26.901Z,100.00
2022-12-29T17:53:30.193Z,100.00
2022-12-29T17:58:32.982Z,100.00
2022-12-29T18:03:38.041Z,100.00
2022-12-29T18:08:44.325Z,100.00
2022-12-29T18:13:47.117Z,100.00
2022-12-29T18:18:49.266Z,100.00
2022-12-29T18:23:51.529Z,100.00
2022-12-29T18:28:54.023Z,100.00
2022-12-29T18:34:02.216Z,100.00
2022-12-29T18:39:04.182Z,100.00
2022-12-29T18:44:13.258Z,100.00
2022-12-29T18:49:15.165Z,100.00
2022-12-29T18:54:28.377Z,100.00
2022-12-29T18:59:30.568Z,100.00
2022-12-29T19:04:32.620Z,100.00
2022-12-29T19:09:34.568Z,100.00
2022-12-29T19:14:36.474Z,100.00
2022-12-29T19:19:39.098Z,100.00
2022-12-29T19:24:41.972Z,100.00
2022-12-29T19:29:44.775Z,100.00
2022-12-29T19:34:49.018Z,100.00
2022-12-29T19:39:51.179Z,99.63
2022-12-29T19:44:53.275Z,100.00
2022-12-29T19:49:55.497Z,100.00
2022-12-29T19:54:57.572Z,100.00
2022-12-29T19:59:59.795Z,100.00
2022-12-29T20:05:02.243Z,100.00
2022-12-29T20:10:06.469Z,100.00
2022-12-29T20:15:09.634Z,100.00
2022-12-29T20:20:11.603Z,99.63
2022-12-29T20:25:43.685Z,100.00
2022-12-29T20:30:36.248Z,100.00
2022-12-29T20:35:38.294Z,99.11
2022-12-29T20:40:46.122Z,99.70
2022-12-29T20:45:49.047Z,100.00
2022-12-29T20:50:51.272Z,99.99
2022-12-29T20:55:55.111Z,100.00
2022-12-29T21:01:02.567Z,100.00
2022-12-29T21:06:04.873Z,100.00
2022-12-29T21:11:07.107Z,100.00
2022-12-29T21:16:12.248Z,100.00
2022-12-29T21:21:22.591Z,100.00
2022-12-29T21:26:24.886Z,100.00
2022-12-29T21:31:29.975Z,100.00
2022-12-29T21:36:33.257Z,100.00
2022-12-29T21:41:35.378Z,100.00
2022-12-29T21:46:40.627Z,99.31
2022-12-29T21:51:51.511Z,100.00
2022-12-29T21:56:53.866Z,100.00
2022-12-29T22:02:14.665Z,100.00
2022-12-29T22:07:35.548Z,99.58
2022-12-29T22:12:55.917Z,99.79
2022-12-29T22:17:58.268Z,98.80
2022-12-29T22:23:00.546Z,98.74
2022-12-29T22:28:02.565Z,98.78
2022-12-29T22:33:04.954Z,99.26
2022-12-29T22:38:06.929Z,99.15
2022-12-29T22:43:13.127Z,99.10
2022-12-29T22:48:15.587Z,99.32
2022-12-29T22:53:17.509Z,98.65
2022-12-29T22:58:19.509Z,98.56
2022-12-29T23:03:21.888Z,97.64
2022-12-29T23:08:24.483Z,96.51
2022-12-29T23:13:26.534Z,94.93
2022-12-29T23:18:29.148Z,94.89
2022-12-29T23:23:50.141Z,93.60
2022-12-29T23:28:59.691Z,92.31
2022-12-29T23:34:03.975Z,93.45
2022-12-29T23:39:09.863Z,92.95
2022-12-29T23:44:11.920Z,91.31
2022-12-29T23:49:13.940Z,90.93
2022-12-29T23:54:15.992Z,90.12
2022-12-29T23:59:17.973Z,90.04
